Time;durP1;ratioP1;P1;durP2;ratioP2;P2;SDS_P1;SDS_P2;PMS_P1;PMS_P2;Temp;Humidity;BMP_temperature;BMP_pressure;BME280_temperature;BME280_humidity;BME280_pressure;Samples;Min_cycle;Max_cycle;Signal;HPM_P1;HPM_P2
2024/01/14 00:00:56;;;;;;;63.17;30.40;;;2.50;1.00;;;;;;5004245;28;20700;-86
2024/01/14 00:03:22;;;;;;;67.30;30.30;;;2.50;1.00;;;;;;5001275;28;20191;-86
2024/01/14 00:05:47;;;;;;;63.53;28.70;;;2.50;1.00;;;;;;4999440;28;20180;-86
2024/01/14 00:08:13;;;;;;;66.27;30.23;;;2.60;1.00;;;;;;5000867;28;20202;-85
2024/01/14 00:10:39;;;;;;;63.20;27.77;;;2.60;1.00;;;;;;5006050;28;20211;-86
2024/01/14 00:13:04;;;;;;;66.13;29.00;;;2.60;1.00;;;;;;5004558;28;20653;-85
2024/01/14 00:15:29;;;;;;;62.77;28.67;;;2.60;1.00;;;;;;5006944;28;20195;-86
2024/01/14 00:17:55;;;;;;;67.27;28.00;;;2.60;1.00;;;;;;5006068;28;20342;-85
2024/01/14 00:20:21;;;;;;;64.73;28.10;;;2.60;1.00;;;;;;5002410;28;20222;-86
2024/01/14 00:22:47;;;;;;;65.60;26.13;;;2.60;1.00;;;;;;5001086;28;20186;-86
2024/01/14 00:25:12;;;;;;;71.37;28.87;;;2.60;1.00;;;;;;5001466;28;20620;-86
2024/01/14 00:27:38;;;;;;;65.10;27.63;;;2.60;1.00;;;;;;5003064;28;20442;-86
2024/01/14 00:30:04;;;;;;;62.57;28.13;;;2.60;1.00;;;;;;5006052;28;20583;-86
2024/01/14 00:32:30;;;;;;;66.22;29.50;;;2.60;1.00;;;;;;4999212;28;20204;-86
2024/01/14 00:34:55;;;;;;;64.73;27.13;;;2.60;1.00;;;;;;5005397;28;20276;-85
2024/01/14 00:37:23;;;;;;;63.13;27.40;;;2.60;1.00;;;;;;5002981;28;20207;-86
2024/01/14 00:39:49;;;;;;;59.92;29.67;;;2.70;1.00;;;;;;5003130;28;20290;-86
2024/01/14 00:42:14;;;;;;;64.97;29.80;;;2.70;1.00;;;;;;5007915;28;20270;-86
2024/01/14 00:44:41;;;;;;;61.80;27.10;;;2.70;1.00;;;;;;5002226;28;20665;-86
2024/01/14 00:47:07;;;;;;;62.17;30.10;;;2.70;1.00;;;;;;5007381;28;20188;-85
2024/01/14 00:49:32;;;;;;;65.60;28.87;;;2.70;1.00;;;;;;5006664;28;20295;-85
2024/01/14 00:51:58;;;;;;;64.33;28.70;;;2.60;1.00;;;;;;5004512;28;20188;-85
2024/01/14 00:54:23;;;;;;;69.70;31.50;;;2.60;1.00;;;;;;5000553;28;20608;-84
2024/01/14 00:56:49;;;;;;;78.47;29.17;;;2.60;1.00;;;;;;4998275;28;20709;-85
2024/01/14 00:59:14;;;;;;;69.60;29.70;;;2.60;1.00;;;;;;5003142;28;20203;-85
2024/01/14 01:01:40;;;;;;;64.97;28.57;;;2.60;1.00;;;;;;5006858;28;20546;-86
2024/01/14 01:04:05;;;;;;;63.07;27.70;;;2.60;1.00;;;;;;5001419;28;20191;-85
2024/01/14 01:06:31;;;;;;;64.30;30.10;;;2.60;1.00;;;;;;5006736;28;20286;-84
2024/01/14 01:08:56;;;;;;;68.33;29.63;;;2.60;1.00;;;;;;5004185;28;20196;-86
2024/01/14 01:11:22;;;;;;;65.83;28.63;;;2.60;1.00;;;;;;5002095;28;20311;-86
2024/01/14 01:13:47;;;;;;;66.67;30.17;;;2.60;1.00;;;;;;5002678;28;20202;-85
2024/01/14 01:16:13;;;;;;;63.77;28.27;;;2.60;1.00;;;;;;5001705;28;20625;-86
2024/01/14 01:18:39;;;;;;;73.23;30.10;;;2.60;1.00;;;;;;4998951;28;20215;-86
2024/01/14 01:21:04;;;;;;;70.53;30.60;;;2.60;1.00;;;;;;5006926;28;20199;-85
2024/01/14 01:23:30;;;;;;;62.90;28.30;;;2.50;1.00;;;;;;4998580;28;20233;-86
2024/01/14 01:25:55;;;;;;;70.80;31.33;;;2.60;1.00;;;;;;5002308;28;20641;-86
2024/01/14 01:28:22;;;;;;;56.87;27.23;;;2.50;1.00;;;;;;5006997;28;20183;-86
2024/01/14 01:30:47;;;;;;;75.97;30.08;;;2.50;1.00;;;;;;5000357;28;20393;-85
2024/01/14 01:33:13;;;;;;;74.03;31.07;;;2.50;1.00;;;;;;5005988;28;20273;-86
2024/01/14 01:35:38;;;;;;;68.30;29.23;;;2.50;1.00;;;;;;4997356;28;20184;-86
2024/01/14 01:38:04;;;;;;;76.23;30.93;;;2.50;1.00;;;;;;4999338;28;20223;-86
2024/01/14 01:40:30;;;;;;;69.45;30.45;;;2.50;1.00;;;;;;5002704;28;20233;-86
2024/01/14 01:42:55;;;;;;;76.27;33.67;;;2.50;1.00;;;;;;5005447;28;20267;-86
2024/01/14 01:45:21;;;;;;;60.53;29.77;;;2.50;1.00;;;;;;5005670;28;20601;-85
2024/01/14 01:47:46;;;;;;;71.83;32.17;;;2.50;1.00;;;;;;5003231;28;20192;-85
2024/01/14 01:50:12;;;;;;;64.43;30.83;;;2.50;1.00;;;;;;5004070;28;20211;-86
2024/01/14 01:52:40;;;;;;;78.00;32.80;;;2.50;1.00;;;;;;5005236;28;20235;-85
2024/01/14 01:55:07;;;;;;;73.03;30.83;;;2.50;1.00;;;;;;5002395;28;20184;-86
2024/01/14 01:57:33;;;;;;;79.75;32.58;;;2.50;1.00;;;;;;5002764;28;20577;-86
2024/01/14 02:00:00;;;;;;;69.40;27.57;;;2.50;1.00;;;;;;4998908;28;20204;-86
2024/01/14 02:02:26;;;;;;;71.57;30.15;;;2.50;1.00;;;;;;4997875;28;20602;-87
2024/01/14 02:04:51;;;;;;;69.40;29.50;;;2.50;1.00;;;;;;5004661;28;20176;-85
2024/01/14 02:07:19;;;;;;;62.83;28.67;;;2.50;1.00;;;;;;4994824;28;20184;-86
2024/01/14 02:09:45;;;;;;;71.95;29.65;;;2.50;1.00;;;;;;5006029;28;20203;-87
2024/01/14 02:12:11;;;;;;;65.30;26.97;;;2.50;1.00;;;;;;5005561;28;20191;-87
2024/01/14 02:14:36;;;;;;;57.80;25.77;;;2.50;1.00;;;;;;5000200;28;20443;-86
2024/01/14 02:17:02;;;;;;;62.20;30.10;;;2.50;1.00;;;;;;5003718;28;20188;-86
2024/01/14 02:19:27;;;;;;;75.10;29.60;;;2.40;1.00;;;;;;5004209;28;20203;-85
2024/01/14 02:21:59;;;;;;;68.43;30.17;;;2.50;1.00;;;;;;4998868;28;20180;-85
2024/01/14 02:24:32;;;;;;;57.65;26.00;;;2.40;1.00;;;;;;4999508;28;21196;-86
2024/01/14 02:26:58;;;;;;;69.93;31.67;;;2.50;1.00;;;;;;5001325;28;20202;-86
2024/01/14 02:29:27;;;;;;;61.30;28.27;;;2.40;1.00;;;;;;4998623;28;20358;-86
2024/01/14 02:31:52;;;;;;;73.13;28.65;;;2.50;1.00;;;;;;5036602;22;20227;-87
2024/01/14 02:34:18;;;;;;;80.20;31.40;;;2.40;1.00;;;;;;5043172;28;20209;-87
2024/01/14 02:36:43;;;;;;;62.13;26.47;;;2.40;1.00;;;;;;5037059;28;20180;-88
2024/01/14 02:39:09;;;;;;;60.27;26.50;;;2.40;1.00;;;;;;5039520;28;20202;-88
2024/01/14 02:41:35;;;;;;;64.70;29.00;;;2.40;1.00;;;;;;5040430;28;20608;-87
2024/01/14 02:44:01;;;;;;;69.87;28.37;;;2.40;1.00;;;;;;5042941;28;20232;-88
2024/01/14 02:46:28;;;;;;;63.30;26.98;;;2.40;1.00;;;;;;5043687;28;20190;-87
2024/01/14 02:48:54;;;;;;;70.47;28.77;;;2.40;1.00;;;;;;5042694;28;20250;-86
2024/01/14 02:51:20;;;;;;;65.67;29.77;;;2.40;1.00;;;;;;5045162;28;20225;-87
2024/01/14 02:53:45;;;;;;;68.97;25.83;;;2.40;1.00;;;;;;5044778;28;20282;-90
2024/01/14 02:56:11;;;;;;;65.53;29.53;;;2.40;1.00;;;;;;5041200;28;20448;-86
2024/01/14 02:58:37;;;;;;;72.13;28.70;;;2.40;1.00;;;;;;5038049;28;20578;-85
2024/01/14 03:01:03;;;;;;;65.75;26.65;;;2.40;1.00;;;;;;5033371;28;20615;-85
2024/01/14 03:03:28;;;;;;;68.60;27.07;;;2.40;1.00;;;;;;5038596;28;20203;-86
2024/01/14 03:05:54;;;;;;;62.07;26.50;;;2.40;1.00;;;;;;5033969;28;20246;-86
2024/01/14 03:08:19;;;;;;;60.30;27.23;;;2.50;1.00;;;;;;5037637;28;20197;-85
2024/01/14 03:10:45;;;;;;;74.73;29.03;;;2.40;1.00;;;;;;5036564;28;20250;-85
2024/01/14 03:13:13;;;;;;;68.00;29.30;;;2.50;1.00;;;;;;5037606;28;20226;-85
2024/01/14 03:15:39;;;;;;;67.72;26.88;;;2.50;1.00;;;;;;5037425;28;20229;-86
2024/01/14 03:18:05;;;;;;;60.03;25.50;;;2.50;1.00;;;;;;5034572;28;20262;-87
2024/01/14 03:20:30;;;;;;;73.13;29.90;;;2.50;1.00;;;;;;5036288;28;20433;-85
2024/01/14 03:22:56;;;;;;;63.07;28.13;;;2.50;1.00;;;;;;5036076;28;20234;-85
2024/01/14 03:25:21;;;;;;;68.40;31.57;;;2.50;1.00;;;;;;5034457;28;20183;-87
2024/01/14 03:27:47;;;;;;;75.00;31.07;;;2.50;1.00;;;;;;5039009;28;20183;-87
2024/01/14 03:30:13;;;;;;;73.00;28.20;;;2.50;1.00;;;;;;5037485;28;20237;-85
2024/01/14 03:32:38;;;;;;;74.07;28.40;;;2.40;1.00;;;;;;5039875;28;20298;-84
2024/01/14 03:35:04;;;;;;;80.00;32.43;;;2.40;1.00;;;;;;5036618;28;20186;-87
2024/01/14 03:37:32;;;;;;;76.30;28.33;;;2.40;1.00;;;;;;5034970;28;20728;-83
2024/01/14 03:39:58;;;;;;;76.65;30.27;;;2.40;1.00;;;;;;5034899;28;20189;-85
2024/01/14 03:42:23;;;;;;;90.53;33.10;;;2.40;1.00;;;;;;5036140;28;20266;-87
2024/01/14 03:44:49;;;;;;;81.90;29.03;;;2.40;1.00;;;;;;5035373;28;20709;-84
2024/01/14 03:47:15;;;;;;;82.73;30.03;;;2.40;1.00;;;;;;5035133;28;20692;-86
2024/01/14 03:49:41;;;;;;;84.57;35.20;;;2.40;1.00;;;;;;5038666;28;20979;-87
2024/01/14 03:52:06;;;;;;;94.10;36.30;;;2.30;1.00;;;;;;5036372;28;20471;-88
2024/01/14 03:54:32;;;;;;;107.03;34.37;;;2.30;1.00;;;;;;5035731;28;20191;-87
2024/01/14 03:56:58;;;;;;;92.10;32.97;;;2.30;1.00;;;;;;5038436;28;20232;-86
2024/01/14 03:59:23;;;;;;;101.77;35.60;;;2.20;1.00;;;;;;5037426;28;20277;-85
2024/01/14 04:01:49;;;;;;;95.07;32.53;;;2.20;1.00;;;;;;5038054;28;20213;-86
2024/01/14 04:04:14;;;;;;;101.57;33.73;;;2.20;1.00;;;;;;5037157;28;20220;-85
2024/01/14 04:06:40;;;;;;;93.07;31.40;;;2.20;1.00;;;;;;5037164;28;20437;-85
2024/01/14 04:09:05;;;;;;;86.67;32.10;;;2.20;1.00;;;;;;5035653;28;20187;-84
2024/01/14 04:11:31;;;;;;;91.37;31.13;;;2.20;1.00;;;;;;5037128;28;20700;-87
2024/01/14 04:13:57;;;;;;;93.83;31.83;;;2.20;1.00;;;;;;5035904;28;20236;-85
2024/01/14 04:16:22;;;;;;;77.43;28.50;;;2.20;1.00;;;;;;5035384;28;20195;-84
2024/01/14 04:18:48;;;;;;;94.00;31.73;;;2.20;1.00;;;;;;5036671;28;20206;-85
2024/01/14 04:21:23;;;;;;;98.60;30.67;;;2.20;1.00;;;;;;5037649;28;20712;-86
2024/01/14 04:23:52;;;;;;;78.70;27.02;;;2.20;1.00;;;;;;5036693;28;20186;-85
2024/01/14 04:26:22;;;;;;;77.65;28.20;;;2.20;1.00;;;;;;5037362;28;20178;-84
2024/01/14 04:28:51;;;;;;;83.03;26.52;;;2.20;1.00;;;;;;5037618;28;20190;-86
2024/01/14 04:31:18;;;;;;;81.32;29.58;;;2.20;1.00;;;;;;5040777;28;20202;-87
2024/01/14 04:33:44;;;;;;;77.03;27.10;;;2.20;1.00;;;;;;5040366;28;20258;-87
2024/01/14 04:36:09;;;;;;;82.00;29.40;;;2.20;1.00;;;;;;5043140;28;20250;-86
2024/01/14 04:38:35;;;;;;;81.77;27.90;;;2.20;1.00;;;;;;5039754;28;20241;-88
2024/01/14 04:41:01;;;;;;;76.10;28.80;;;2.20;1.00;;;;;;5040602;28;20190;-87
2024/01/14 04:43:26;;;;;;;70.97;26.80;;;2.20;1.00;;;;;;5042179;28;20590;-87
2024/01/14 04:45:52;;;;;;;66.80;24.53;;;2.20;1.00;;;;;;5041902;28;20202;-87
2024/01/14 04:48:17;;;;;;;73.07;28.17;;;2.20;1.00;;;;;;5036863;28;20202;-87
2024/01/14 04:50:43;;;;;;;61.73;23.53;;;2.20;1.00;;;;;;5039321;28;20191;-87
2024/01/14 04:53:08;;;;;;;61.97;23.87;;;2.20;1.00;;;;;;5038284;28;20199;-86
2024/01/14 04:55:34;;;;;;;65.77;25.10;;;2.20;1.00;;;;;;5039514;28;20202;-85
2024/01/14 04:58:00;;;;;;;59.53;24.83;;;2.20;1.00;;;;;;5041134;28;20260;-90
2024/01/14 05:00:26;;;;;;;53.10;24.77;;;2.20;1.00;;;;;;5039116;28;20510;-89
2024/01/14 05:02:51;;;;;;;58.15;24.27;;;2.20;1.00;;;;;;5038903;28;20243;-86
2024/01/14 05:05:17;;;;;;;67.87;25.57;;;2.20;1.00;;;;;;5040420;28;20190;-87
2024/01/14 05:07:42;;;;;;;43.63;21.30;;;2.20;1.00;;;;;;5045616;28;20814;-85
2024/01/14 05:10:09;;;;;;;54.83;21.03;;;2.20;1.00;;;;;;5046261;28;21572;-87
2024/01/14 05:12:34;;;;;;;51.95;24.30;;;2.20;1.00;;;;;;5041112;28;20213;-86
2024/01/14 05:15:00;;;;;;;51.50;22.27;;;2.20;1.00;;;;;;5043401;28;20182;-86
2024/01/14 05:17:26;;;;;;;49.23;20.10;;;2.20;1.00;;;;;;5045096;28;20464;-89
2024/01/14 05:19:52;;;;;;;39.17;18.10;;;2.20;1.00;;;;;;5041856;28;21177;-85
2024/01/14 05:22:17;;;;;;;55.03;20.27;;;2.20;1.00;;;;;;5037684;28;20526;-88
2024/01/14 05:24:43;;;;;;;43.43;19.57;;;2.20;1.00;;;;;;5044311;28;20254;-88
2024/01/14 05:27:13;;;;;;;50.50;19.60;;;2.20;1.00;;;;;;5043908;28;20187;-87
2024/01/14 05:29:42;;;;;;;57.72;21.17;;;2.30;1.00;;;;;;5041978;28;20831;-88
2024/01/14 05:32:10;;;;;;;44.60;18.10;;;2.30;1.00;;;;;;5043160;28;20278;-88
2024/01/14 05:34:35;;;;;;;48.88;19.20;;;2.30;1.00;;;;;;5042923;28;20206;-87
2024/01/14 05:37:01;;;;;;;48.07;19.87;;;2.20;1.00;;;;;;5043110;28;20183;-87
2024/01/14 05:39:27;;;;;;;46.63;19.53;;;2.20;1.00;;;;;;5040037;28;20199;-88
2024/01/14 05:41:52;;;;;;;40.13;19.30;;;2.20;1.00;;;;;;5043528;28;20229;-86
2024/01/14 05:44:18;;;;;;;43.20;20.20;;;2.20;1.00;;;;;;5044668;28;20234;-87
2024/01/14 05:46:43;;;;;;;58.53;20.80;;;2.20;1.00;;;;;;5042772;28;20183;-87
2024/01/14 05:49:10;;;;;;;48.40;20.07;;;2.20;1.00;;;;;;5046136;28;20205;-87
2024/01/14 05:51:36;;;;;;;42.88;18.73;;;2.20;1.00;;;;;;5043210;28;20203;-89
2024/01/14 05:54:02;;;;;;;43.23;19.50;;;2.20;1.00;;;;;;5044696;28;20196;-88
2024/01/14 05:56:28;;;;;;;37.78;19.45;;;2.20;1.00;;;;;;5044386;28;20266;-89
2024/01/14 05:58:54;;;;;;;41.40;19.40;;;2.20;1.00;;;;;;5045158;28;20210;-89
2024/01/14 06:01:19;;;;;;;48.00;18.93;;;2.20;1.00;;;;;;5043698;28;20464;-86
2024/01/14 06:03:45;;;;;;;43.73;18.87;;;2.20;1.00;;;;;;5049157;28;20179;-88
2024/01/14 06:06:11;;;;;;;47.63;19.50;;;2.20;1.00;;;;;;5043792;28;20179;-86
2024/01/14 06:08:36;;;;;;;43.60;18.63;;;2.20;1.00;;;;;;5040972;28;20441;-87
2024/01/14 06:11:03;;;;;;;44.30;19.50;;;2.20;1.00;;;;;;5041177;28;20203;-86
2024/01/14 06:13:32;;;;;;;48.13;20.80;;;2.20;1.00;;;;;;5040120;28;20202;-86
2024/01/14 06:15:58;;;;;;;48.72;20.67;;;2.10;1.00;;;;;;5040495;28;20178;-86
2024/01/14 06:18:24;;;;;;;46.97;20.70;;;2.10;1.00;;;;;;5036761;28;20210;-86
2024/01/14 06:20:49;;;;;;;43.63;19.87;;;2.20;1.00;;;;;;5039644;28;20183;-87
2024/01/14 06:23:16;;;;;;;37.87;16.63;;;2.10;1.00;;;;;;5040012;28;20202;-87
2024/01/14 06:25:41;;;;;;;42.95;19.40;;;2.20;1.00;;;;;;5035909;28;20674;-88
2024/01/14 06:28:07;;;;;;;44.40;17.63;;;2.20;1.00;;;;;;5036942;28;20190;-85
2024/01/14 06:30:38;;;;;;;37.93;18.80;;;2.20;1.00;;;;;;5038706;28;20187;-86
2024/01/14 06:33:07;;;;;;;48.45;19.73;;;2.20;1.00;;;;;;5039874;28;20218;-86
2024/01/14 06:35:32;;;;;;;48.08;18.80;;;2.20;1.00;;;;;;5036080;28;20195;-86
2024/01/14 06:37:58;;;;;;;45.70;20.20;;;2.20;1.00;;;;;;5032680;28;20222;-85
2024/01/14 06:40:24;;;;;;;39.37;17.27;;;2.20;1.00;;;;;;5042116;28;20880;-87
2024/01/14 06:42:50;;;;;;;35.50;19.40;;;2.20;1.00;;;;;;5037859;28;20545;-87
2024/01/14 06:45:18;;;;;;;42.43;19.17;;;2.20;1.00;;;;;;5039101;28;20433;-85
2024/01/14 06:47:44;;;;;;;44.88;20.13;;;2.10;1.00;;;;;;5036988;28;20425;-84
2024/01/14 06:50:10;;;;;;;42.10;19.02;;;2.10;1.00;;;;;;5035965;28;20198;-86
2024/01/14 06:52:45;;;;;;;32.60;15.35;;;2.10;1.00;;;;;;5036733;28;20206;-87
2024/01/14 06:55:15;;;;;;;35.80;15.80;;;2.10;1.00;;;;;;5037191;28;20182;-87
2024/01/14 06:57:41;;;;;;;37.40;16.55;;;2.10;1.00;;;;;;5032855;28;20226;-82
2024/01/14 07:00:10;;;;;;;35.95;16.08;;;2.10;1.00;;;;;;5036288;28;20250;-86
2024/01/14 07:02:36;;;;;;;41.20;17.00;;;2.20;1.00;;;;;;5036827;28;20624;-87
2024/01/14 07:05:03;;;;;;;40.90;18.87;;;2.10;1.00;;;;;;5036260;28;20179;-86
2024/01/14 07:07:32;;;;;;;38.50;15.52;;;2.10;1.00;;;;;;5037060;28;20425;-87
2024/01/14 07:09:58;;;;;;;36.25;15.98;;;2.10;1.00;;;;;;5035989;28;20179;-88
2024/01/14 07:12:24;;;;;;;35.20;15.43;;;2.10;1.00;;;;;;5037720;28;21244;-88
2024/01/14 07:14:50;;;;;;;33.42;13.45;;;2.10;1.00;;;;;;5036983;28;20505;-87
2024/01/14 07:17:19;;;;;;;39.70;17.37;;;2.10;1.00;;;;;;5019845;28;20297;-87
2024/01/14 07:19:45;;;;;;;39.15;17.65;;;2.10;1.00;;;;;;5033573;28;20470;-85
2024/01/14 07:22:11;;;;;;;38.17;16.10;;;2.10;1.00;;;;;;5036572;28;20613;-86
2024/01/14 07:24:36;;;;;;;40.70;17.00;;;2.10;1.00;;;;;;5035326;28;20201;-87
2024/01/14 07:27:03;;;;;;;36.67;16.20;;;2.10;1.00;;;;;;5037484;28;20544;-84
2024/01/14 07:29:29;;;;;;;38.90;17.83;;;2.10;1.00;;;;;;5036814;28;20440;-86
2024/01/14 07:31:55;;;;;;;30.17;13.98;;;2.20;1.00;;;;;;5040615;28;20364;-86
2024/01/14 07:34:21;;;;;;;30.30;13.90;;;2.30;1.00;;;;;;5037096;28;20648;-85
2024/01/14 07:36:46;;;;;;;26.70;13.90;;;2.30;1.00;;;;;;5034939;28;20183;-84
2024/01/14 07:39:12;;;;;;;28.63;15.07;;;2.30;1.00;;;;;;5037038;28;20236;-84
2024/01/14 07:41:39;;;;;;;25.97;12.93;;;2.40;1.00;;;;;;5036954;28;20202;-84
2024/01/14 07:44:05;;;;;;;33.85;14.50;;;2.30;1.00;;;;;;5037864;28;20167;-83
2024/01/14 07:46:31;;;;;;;26.90;13.98;;;2.30;1.00;;;;;;5036260;28;20175;-83
2024/01/14 07:48:57;;;;;;;29.80;15.05;;;2.30;1.00;;;;;;5036117;28;20193;-83
2024/01/14 07:51:23;;;;;;;26.65;14.40;;;2.30;1.00;;;;;;5036438;28;20270;-86
2024/01/14 07:53:49;;;;;;;25.53;12.43;;;2.30;1.00;;;;;;5042104;28;20210;-84
2024/01/14 07:56:15;;;;;;;30.27;12.83;;;2.30;1.00;;;;;;5036059;28;20437;-86
2024/01/14 07:58:40;;;;;;;23.63;13.00;;;2.20;1.00;;;;;;5036088;28;20633;-82
2024/01/14 08:01:06;;;;;;;29.03;12.87;;;2.20;1.00;;;;;;5034510;28;20202;-83
2024/01/14 08:03:32;;;;;;;31.37;13.93;;;2.20;1.00;;;;;;5034969;28;20738;-85
2024/01/14 08:05:58;;;;;;;27.33;13.15;;;2.20;1.00;;;;;;5034072;28;20179;-83
2024/01/14 08:08:23;;;;;;;21.60;10.97;;;2.20;1.00;;;;;;5027845;28;20683;-84
2024/01/14 08:10:49;;;;;;;26.30;14.20;;;2.20;1.00;;;;;;5024925;28;20193;-85
2024/01/14 08:13:15;;;;;;;28.20;12.93;;;2.30;1.00;;;;;;5031037;28;20206;-86
2024/01/14 08:15:41;;;;;;;25.77;13.10;;;2.30;1.00;;;;;;5027034;28;20461;-84
2024/01/14 08:18:06;;;;;;;29.67;16.23;;;2.30;1.00;;;;;;5027018;28;20990;-83
2024/01/14 08:20:32;;;;;;;23.60;12.40;;;2.20;1.00;;;;;;5025023;28;20804;-85
2024/01/14 08:22:58;;;;;;;27.03;13.37;;;2.30;1.00;;;;;;5026155;28;20221;-85
2024/01/14 08:25:23;;;;;;;26.73;11.83;;;2.30;1.00;;;;;;5031103;28;20175;-86
2024/01/14 08:27:52;;;;;;;26.50;14.77;;;2.30;1.00;;;;;;5029503;28;20237;-86
2024/01/14 08:30:18;;;;;;;28.73;14.60;;;2.20;1.00;;;;;;5031524;28;20174;-86
2024/01/14 08:32:43;;;;;;;23.02;11.48;;;2.20;1.00;;;;;;5034485;28;20636;-85
2024/01/14 08:35:13;;;;;;;26.23;12.27;;;2.20;1.00;;;;;;5042867;28;20174;-82
2024/01/14 08:37:42;;;;;;;23.95;13.38;;;2.20;1.00;;;;;;5045058;28;20187;-83
2024/01/14 08:40:10;;;;;;;22.08;11.90;;;2.30;1.00;;;;;;5035662;28;20175;-83
2024/01/14 08:42:35;;;;;;;28.50;13.10;;;2.20;1.00;;;;;;5038538;28;20257;-83
2024/01/14 08:45:01;;;;;;;21.80;12.20;;;2.20;1.00;;;;;;5041039;28;20680;-83
2024/01/14 08:47:27;;;;;;;23.65;11.43;;;2.20;1.00;;;;;;5044181;28;20186;-85
2024/01/14 08:49:52;;;;;;;26.13;11.43;;;2.20;1.00;;;;;;5039074;28;20195;-82
2024/01/14 08:52:18;;;;;;;26.13;10.90;;;2.20;1.00;;;;;;5041100;28;20218;-84
2024/01/14 08:54:43;;;;;;;21.67;11.70;;;2.20;1.00;;;;;;5043695;28;20205;-82
2024/01/14 08:57:10;;;;;;;21.37;10.30;;;2.20;1.00;;;;;;5039526;28;20187;-83
2024/01/14 08:59:35;;;;;;;21.05;11.13;;;2.20;1.00;;;;;;5038768;28;20231;-83
2024/01/14 09:02:01;;;;;;;23.70;11.03;;;2.20;1.00;;;;;;5042680;28;20203;-85
2024/01/14 09:04:27;;;;;;;21.65;10.80;;;2.20;1.00;;;;;;5042305;28;20552;-83
2024/01/14 09:06:52;;;;;;;28.37;12.50;;;2.20;1.00;;;;;;5044684;28;20179;-85
2024/01/14 09:09:18;;;;;;;21.27;11.90;;;2.10;1.00;;;;;;5045726;28;20251;-84
2024/01/14 09:11:45;;;;;;;28.07;13.30;;;2.10;1.00;;;;;;5042926;28;20215;-85
2024/01/14 09:14:11;;;;;;;26.50;11.52;;;2.10;1.00;;;;;;5043492;28;20179;-85
2024/01/14 09:16:36;;;;;;;23.67;9.80;;;2.20;1.00;;;;;;5042296;28;20240;-83
2024/01/14 09:19:02;;;;;;;29.20;13.20;;;2.20;1.00;;;;;;5040907;28;20773;-86
2024/01/14 09:21:28;;;;;;;27.90;12.23;;;2.20;1.00;;;;;;5040640;28;20191;-81
2024/01/14 09:23:53;;;;;;;32.70;13.83;;;2.10;1.00;;;;;;5032360;28;20544;-82
2024/01/14 09:26:19;;;;;;;34.97;13.60;;;2.20;1.00;;;;;;5042583;28;20441;-81
2024/01/14 09:28:44;;;;;;;30.33;12.00;;;2.10;1.00;;;;;;5051084;28;20196;-83
2024/01/14 09:31:12;;;;;;;29.17;14.17;;;2.20;1.00;;;;;;5041848;28;20225;-83
2024/01/14 09:33:37;;;;;;;29.17;13.82;;;2.20;1.00;;;;;;5041916;28;20210;-82
2024/01/14 09:36:07;;;;;;;32.27;14.20;;;2.30;1.00;;;;;;5040374;28;20535;-85
2024/01/14 09:38:32;;;;;;;29.90;14.15;;;2.30;1.00;;;;;;5040776;28;20202;-82
2024/01/14 09:41:18;;;;;;;32.27;13.73;;;2.30;1.00;;;;;;5040141;28;20203;-84
2024/01/14 09:43:49;;;;;;;36.55;14.00;;;2.30;1.00;;;;;;5040851;28;20171;-83
2024/01/14 09:46:15;;;;;;;32.42;13.27;;;2.30;1.00;;;;;;5040992;28;20528;-82
2024/01/14 09:48:42;;;;;;;28.40;12.03;;;2.30;1.00;;;;;;5049204;28;20185;-80
2024/01/14 09:51:08;;;;;;;24.75;13.05;;;2.20;1.00;;;;;;5040985;28;20183;-83
2024/01/14 09:53:36;;;;;;;31.13;12.23;;;2.30;1.00;;;;;;5040904;28;20225;-83
2024/01/14 09:56:07;;;;;;;27.23;12.95;;;2.30;1.00;;;;;;5040615;28;20171;-81
2024/01/14 09:58:34;;;;;;;26.15;11.55;;;2.30;1.00;;;;;;5039035;28;20214;-83
2024/01/14 10:01:03;;;;;;;33.67;13.75;;;2.30;1.00;;;;;;5039897;28;20213;-83
2024/01/14 10:03:29;;;;;;;34.25;15.45;;;2.40;1.00;;;;;;5038700;28;20199;-84
2024/01/14 10:05:55;;;;;;;38.03;14.63;;;2.40;1.00;;;;;;5040184;28;20179;-83
2024/01/14 10:08:22;;;;;;;27.60;12.45;;;2.40;1.00;;;;;;5035401;28;20446;-83
2024/01/14 10:10:52;;;;;;;31.15;14.55;;;2.40;1.00;;;;;;5040649;28;20199;-84
2024/01/14 10:13:22;;;;;;;32.03;13.80;;;2.40;1.00;;;;;;5040690;28;20264;-83
2024/01/14 10:15:48;;;;;;;34.45;14.40;;;2.40;1.00;;;;;;5024259;28;20175;-83
2024/01/14 10:18:17;;;;;;;31.60;13.35;;;2.40;1.00;;;;;;5038666;28;20237;-82
2024/01/14 10:20:42;;;;;;;29.77;12.57;;;2.50;1.00;;;;;;5036886;28;20187;-84
2024/01/14 10:23:08;;;;;;;36.00;13.23;;;2.50;1.00;;;;;;5039501;28;20217;-83
2024/01/14 10:25:34;;;;;;;27.70;12.77;;;2.50;1.00;;;;;;5036870;28;20183;-84
2024/01/14 10:28:04;;;;;;;32.77;12.27;;;2.40;1.00;;;;;;5040504;28;20255;-84
2024/01/14 10:30:29;;;;;;;28.17;12.35;;;2.40;1.00;;;;;;5039074;28;20432;-83
2024/01/14 10:32:55;;;;;;;22.90;11.10;;;2.40;1.00;;;;;;5038527;28;20218;-84
2024/01/14 10:35:23;;;;;;;25.10;12.03;;;2.40;1.00;;;;;;5038075;28;20183;-83
2024/01/14 10:37:49;;;;;;;25.25;12.18;;;2.40;99.90;;;;;;5032001;28;20179;-83
2024/01/14 10:40:17;;;;;;;29.03;12.90;;;2.40;99.90;;;;;;5038766;28;20190;-83
2024/01/14 10:42:43;;;;;;;22.88;12.10;;;2.50;99.90;;;;;;5032736;28;20203;-83
2024/01/14 10:45:08;;;;;;;28.90;12.37;;;2.50;99.90;;;;;;5037241;28;20186;-81
2024/01/14 10:47:34;;;;;;;24.63;12.03;;;2.60;99.90;;;;;;5037266;28;20187;-84
2024/01/14 10:50:00;;;;;;;23.30;10.43;;;2.60;99.90;;;;;;5034006;28;20257;-84
2024/01/14 10:52:33;;;;;;;21.58;11.52;;;2.60;99.90;;;;;;5037140;28;20207;-84
2024/01/14 10:55:13;;;;;;;24.30;10.85;;;2.60;99.90;;;;;;5037164;28;20183;-84
2024/01/14 10:57:42;;;;;;;21.65;11.63;;;2.70;99.90;;;;;;5031868;28;20193;-83
2024/01/14 11:00:09;;;;;;;25.00;11.23;;;2.70;99.90;;;;;;5029660;28;20178;-83
2024/01/14 11:02:37;;;;;;;22.08;11.55;;;2.70;99.90;;;;;;5019104;28;20247;-84
2024/01/14 11:05:08;;;;;;;25.15;12.65;;;2.70;99.90;;;;;;5034925;28;20186;-83
2024/01/14 11:07:36;;;;;;;25.83;11.77;;;2.60;99.90;;;;;;5037092;28;20175;-82
2024/01/14 11:10:04;;;;;;;30.17;11.52;;;2.50;1.00;;;;;;5036168;28;20571;-83
2024/01/14 11:12:51;;;;;;;27.63;11.77;;;2.50;1.00;;;;;;5036990;28;20279;-82
2024/01/14 11:15:28;;;;;;;22.52;11.50;;;2.50;1.00;;;;;;5031589;28;20178;-83
2024/01/14 11:18:09;;;;;;;30.20;11.57;;;2.40;1.00;;;;;;5038130;28;20175;-82
2024/01/14 11:20:37;;;;;;;27.00;12.35;;;2.40;1.00;;;;;;5029760;28;20170;-83
2024/01/14 11:23:03;;;;;;;23.90;11.10;;;2.40;1.00;;;;;;5029617;28;20695;-82
2024/01/14 11:25:33;;;;;;;25.33;11.53;;;2.40;99.90;;;;;;5024911;28;20233;-83
2024/01/14 11:28:00;;;;;;;27.70;13.20;;;2.50;99.90;;;;;;5031536;28;20193;-83
2024/01/14 11:30:48;;;;;;;24.52;12.10;;;2.50;99.90;;;;;;5036608;28;20644;-84
2024/01/14 11:33:42;;;;;;;25.10;11.30;;;2.60;99.90;;;;;;5033134;28;20298;-82
2024/01/14 11:36:08;;;;;;;22.80;10.38;;;2.70;99.90;;;;;;5030958;28;20171;-84
2024/01/14 11:38:35;;;;;;;22.10;11.15;;;2.60;99.90;;;;;;5022711;28;20202;-83
2024/01/14 11:41:29;;;;;;;19.15;10.52;;;2.70;99.90;;;;;;5029989;28;20218;-82
2024/01/14 11:44:03;;;;;;;20.02;10.27;;;2.70;99.90;;;;;;5018306;28;20190;-84
2024/01/14 11:46:46;;;;;;;21.70;10.20;;;2.70;99.90;;;;;;5028443;28;20183;-83
2024/01/14 11:49:17;;;;;;;19.13;9.98;;;2.80;99.90;;;;;;5037927;28;20602;-83
2024/01/14 11:51:57;;;;;;;19.77;9.90;;;2.80;66.70;;;;;;5026641;28;20208;-84
2024/01/14 11:54:23;;;;;;;17.20;9.15;;;2.80;1.00;;;;;;5034055;28;20218;-83
2024/01/14 11:56:48;;;;;;;18.10;9.50;;;2.80;1.00;;;;;;5038738;28;20190;-82
2024/01/14 11:59:14;;;;;;;17.83;8.70;;;2.90;1.00;;;;;;5059347;28;20220;-84
2024/01/14 12:01:39;;;;;;;17.93;9.23;;;2.80;1.00;;;;;;5022824;28;20262;-83
2024/01/14 12:04:08;;;;;;;14.43;7.73;;;2.90;1.00;;;;;;5035052;28;20257;-84
2024/01/14 12:06:50;;;;;;;19.17;10.40;;;3.00;99.90;;;;;;5035084;28;20190;-84
2024/01/14 12:09:17;;;;;;;20.27;9.55;;;3.00;99.90;;;;;;5034291;28;20238;-82
2024/01/14 12:11:42;;;;;;;14.00;8.45;;;3.00;99.90;;;;;;5026197;28;20688;-85
2024/01/14 12:14:09;;;;;;;14.30;7.60;;;3.00;93.50;;;;;;5031261;28;20186;-83
2024/01/14 12:16:35;;;;;;;21.58;8.90;;;3.00;89.20;;;;;;5032043;28;20186;-84
2024/01/14 12:19:18;;;;;;;18.55;8.75;;;3.00;99.90;;;;;;5038724;28;20633;-85
2024/01/14 12:21:43;;;;;;;14.02;8.10;;;2.90;99.90;;;;;;5037936;28;20198;-84
2024/01/14 12:24:11;;;;;;;19.70;9.33;;;2.90;99.90;;;;;;5026234;28;20310;-84
2024/01/14 12:26:37;;;;;;;20.08;9.38;;;2.90;99.90;;;;;;5023948;28;20194;-81
2024/01/14 12:29:02;;;;;;;16.43;7.50;;;2.90;99.90;;;;;;5037489;28;20183;-84
2024/01/14 12:31:31;;;;;;;15.00;8.80;;;3.00;99.90;;;;;;5031325;28;20195;-83
2024/01/14 12:34:01;;;;;;;23.13;10.05;;;3.00;22.80;;;;;;5038658;28;20294;-84
2024/01/14 12:36:26;;;;;;;19.00;8.40;;;2.90;1.00;;;;;;5040256;28;20555;-84
2024/01/14 12:38:52;;;;;;;21.00;10.63;;;3.00;9.10;;;;;;5034385;28;20203;-85
2024/01/14 12:41:18;;;;;;;17.03;9.27;;;3.00;1.00;;;;;;5041520;28;20191;-84
2024/01/14 12:43:44;;;;;;;14.93;8.47;;;2.90;1.00;;;;;;5032948;28;20646;-84